Time;durP1;ratioP1;P1;durP2;ratioP2;P2;SDS_P1;SDS_P2;PMS_P1;PMS_P2;Temp;Humidity;BMP_temperature;BMP_pressure;BME280_temperature;BME280_humidity;BME280_pressure;Samples;Min_cycle;Max_cycle;Signal;HPM_P1;HPM_P2
2021/05/21 00:01:03;;;;;;;2.30;2.10;;;12.50;97.60;;;;;;5030707;28;20187;-52
2021/05/21 00:03:28;;;;;;;1.98;1.88;;;12.90;97.80;;;;;;5033361;28;20544;-51
2021/05/21 00:05:54;;;;;;;2.17;2.03;;;12.60;97.70;;;;;;5044737;28;20656;-52
2021/05/21 00:08:20;;;;;;;1.90;1.80;;;12.70;97.80;;;;;;5030555;28;20199;-51
2021/05/21 00:10:45;;;;;;;2.57;2.37;;;12.80;98.00;;;;;;5031273;28;20182;-51
2021/05/21 00:13:11;;;;;;;3.00;2.17;;;12.60;97.90;;;;;;5047327;28;20193;-52
2021/05/21 00:15:37;;;;;;;1.87;1.77;;;12.70;98.00;;;;;;5033885;28;20290;-52
2021/05/21 00:18:02;;;;;;;2.47;2.10;;;12.60;98.00;;;;;;5035849;28;20466;-52
2021/05/21 00:20:28;;;;;;;2.27;2.17;;;12.60;98.20;;;;;;5031344;28;20215;-51
2021/05/21 00:22:54;;;;;;;2.30;2.10;;;12.60;98.20;;;;;;5044777;28;20187;-51
2021/05/21 00:25:19;;;;;;;2.17;1.97;;;12.20;98.10;;;;;;5047067;28;20271;-51
2021/05/21 00:27:45;;;;;;;2.20;2.00;;;12.80;98.40;;;;;;5046409;28;20192;-52
2021/05/21 00:30:11;;;;;;;2.13;2.03;;;12.80;98.60;;;;;;5036613;28;20222;-52
2021/05/21 00:32:37;;;;;;;3.28;2.38;;;12.60;98.60;;;;;;5029674;28;20195;-51
2021/05/21 00:35:03;;;;;;;2.30;2.07;;;12.60;98.60;;;;;;5047914;28;20258;-51
2021/05/21 00:37:28;;;;;;;2.30;2.10;;;12.30;98.50;;;;;;5043240;28;20186;-51
2021/05/21 00:39:54;;;;;;;2.13;2.03;;;12.50;98.60;;;;;;5044569;28;20459;-51
2021/05/21 00:42:20;;;;;;;2.37;2.17;;;12.50;98.60;;;;;;5045299;28;20247;-52
2021/05/21 00:44:56;;;;;;;1.97;1.77;;;12.50;98.70;;;;;;5048772;28;20261;-52
2021/05/21 00:47:22;;;;;;;2.15;2.05;;;12.60;99.00;;;;;;5040496;28;20269;-51
2021/05/21 00:49:48;;;;;;;3.25;1.80;;;12.50;98.80;;;;;;5037547;28;20184;-52
2021/05/21 00:52:16;;;;;;;2.38;2.17;;;12.60;99.10;;;;;;5029925;28;20742;-52
2021/05/21 00:54:44;;;;;;;1.90;1.80;;;12.40;99.20;;;;;;5048451;28;20218;-51
2021/05/21 00:57:10;;;;;;;1.85;1.75;;;12.30;99.20;;;;;;5065680;28;20187;-52
2021/05/21 00:59:35;;;;;;;1.80;1.70;;;12.20;99.10;;;;;;5040253;28;20683;-52
2021/05/21 01:02:02;;;;;;;2.30;2.10;;;12.40;98.80;;;;;;5043112;28;20183;-51
2021/05/21 01:04:28;;;;;;;2.10;1.88;;;12.30;98.70;;;;;;5045404;28;20636;-52
2021/05/21 01:06:53;;;;;;;1.90;1.80;;;12.70;98.90;;;;;;5035112;28;20223;-51
2021/05/21 01:09:19;;;;;;;2.10;1.80;;;12.40;98.60;;;;;;5035875;28;20187;-52
2021/05/21 01:11:45;;;;;;;2.77;2.10;;;12.50;98.60;;;;;;5031063;28;20278;-52
2021/05/21 01:14:11;;;;;;;1.90;1.70;;;12.70;98.70;;;;;;5042714;28;20277;-51
2021/05/21 01:16:37;;;;;;;2.10;1.90;;;12.60;98.50;;;;;;5039726;28;20191;-51
2021/05/21 01:19:05;;;;;;;3.00;2.00;;;12.40;98.40;;;;;;5044996;28;20203;-51
2021/05/21 01:21:37;;;;;;;1.90;1.65;;;12.50;98.50;;;;;;5038521;28;20441;-51
2021/05/21 01:24:07;;;;;;;2.03;1.83;;;12.50;98.70;;;;;;5045774;28;20219;-52
2021/05/21 01:26:34;;;;;;;2.10;2.00;;;12.40;98.70;;;;;;5037946;28;20179;-52
2021/05/21 01:29:00;;;;;;;1.95;1.83;;;12.40;98.60;;;;;;5031892;28;20183;-52
2021/05/21 01:31:26;;;;;;;2.50;2.30;;;12.60;98.80;;;;;;5037693;28;20183;-52
2021/05/21 01:33:52;;;;;;;1.80;1.70;;;12.30;98.60;;;;;;5029374;28;20714;-52
2021/05/21 01:36:18;;;;;;;1.80;1.70;;;12.30;98.60;;;;;;5045199;28;20930;-51
2021/05/21 01:39:07;;;;;;;1.80;1.70;;;12.40;98.80;;;;;;5037436;28;20197;-51
2021/05/21 01:41:34;;;;;;;1.85;1.75;;;12.40;98.60;;;;;;5045126;28;20196;-51
2021/05/21 01:44:03;;;;;;;1.90;1.80;;;12.30;98.30;;;;;;5038473;28;20224;-52
2021/05/21 01:46:29;;;;;;;2.10;2.00;;;12.30;98.40;;;;;;5027496;28;20771;-51
2021/05/21 01:48:58;;;;;;;1.83;1.70;;;12.20;98.40;;;;;;5035537;28;20180;-52
2021/05/21 01:51:23;;;;;;;1.90;1.80;;;12.20;98.30;;;;;;5046346;28;20470;-51
2021/05/21 01:53:49;;;;;;;1.70;1.60;;;12.40;98.20;;;;;;5041993;28;20672;-51
2021/05/21 01:56:15;;;;;;;1.67;1.57;;;12.30;98.10;;;;;;5043933;28;20196;-51
2021/05/21 01:58:40;;;;;;;2.17;1.97;;;12.40;98.10;;;;;;5039811;28;20176;-52
2021/05/21 02:01:06;;;;;;;2.17;1.97;;;12.40;98.30;;;;;;5035628;28;20530;-51
2021/05/21 02:03:35;;;;;;;1.70;1.60;;;12.40;98.20;;;;;;5035715;28;20206;-51
2021/05/21 02:06:00;;;;;;;2.38;2.17;;;12.10;97.90;;;;;;5035383;28;20183;-52
2021/05/21 02:08:27;;;;;;;1.60;1.50;;;12.60;98.10;;;;;;5052301;28;20281;-52
2021/05/21 02:10:56;;;;;;;1.38;1.27;;;12.50;97.50;;;;;;5054607;28;20179;-51
2021/05/21 02:13:23;;;;;;;1.95;1.70;;;12.70;97.50;;;;;;5054541;28;20209;-52
2021/05/21 02:15:49;;;;;;;1.55;1.23;;;12.70;97.00;;;;;;5048983;28;20261;-51
2021/05/21 02:18:14;;;;;;;1.57;1.47;;;12.30;96.50;;;;;;5046731;28;20584;-51
2021/05/21 02:20:41;;;;;;;1.90;1.70;;;12.50;96.30;;;;;;5045949;28;20191;-52
2021/05/21 02:23:07;;;;;;;2.00;1.40;;;12.60;95.90;;;;;;5054724;28;20662;-52
2021/05/21 02:25:33;;;;;;;2.10;1.53;;;12.60;95.80;;;;;;5054866;28;20244;-52
2021/05/21 02:27:59;;;;;;;2.20;1.60;;;12.90;95.70;;;;;;5044891;28;20553;-52
2021/05/21 02:30:25;;;;;;;1.65;1.55;;;12.80;95.50;;;;;;5054654;28;20186;-52
2021/05/21 02:32:51;;;;;;;1.40;1.30;;;12.80;95.30;;;;;;5054910;28;20179;-52
2021/05/21 02:35:17;;;;;;;2.43;1.97;;;12.90;95.60;;;;;;5041325;28;20281;-52
2021/05/21 02:37:42;;;;;;;1.33;1.23;;;12.80;95.50;;;;;;5049525;28;20783;-52
2021/05/21 02:40:11;;;;;;;1.60;1.50;;;12.80;95.40;;;;;;5038827;28;20191;-51
2021/05/21 02:42:37;;;;;;;2.20;1.80;;;13.00;95.70;;;;;;5036797;28;20196;-51
2021/05/21 02:45:04;;;;;;;1.30;1.20;;;12.90;95.50;;;;;;5046161;28;20243;-51
2021/05/21 02:47:31;;;;;;;3.35;1.60;;;12.90;95.60;;;;;;5048974;28;20187;-51
2021/05/21 02:49:57;;;;;;;1.55;1.45;;;12.70;95.80;;;;;;5036271;28;20191;-52
2021/05/21 02:52:23;;;;;;;1.80;1.70;;;12.90;96.20;;;;;;5050284;28;20192;-51
2021/05/21 02:54:49;;;;;;;2.70;1.97;;;12.70;96.50;;;;;;5045318;28;20514;-51
2021/05/21 02:57:14;;;;;;;1.47;1.37;;;12.70;96.50;;;;;;5053710;28;20199;-52
2021/05/21 02:59:40;;;;;;;2.97;1.73;;;12.70;96.60;;;;;;5043635;28;20669;-51
2021/05/21 03:02:05;;;;;;;1.50;1.40;;;12.50;96.20;;;;;;5036782;28;20183;-51
2021/05/21 03:04:31;;;;;;;3.10;1.93;;;12.60;96.70;;;;;;5043794;28;20562;-52
2021/05/21 03:06:57;;;;;;;2.47;1.93;;;12.30;96.50;;;;;;5040277;28;20197;-51
2021/05/21 03:09:22;;;;;;;2.30;1.53;;;12.60;96.60;;;;;;5050896;28;20179;-50
2021/05/21 03:11:48;;;;;;;1.60;1.47;;;12.30;96.40;;;;;;5036923;28;20194;-51
2021/05/21 03:14:14;;;;;;;1.90;1.30;;;12.50;96.40;;;;;;5035258;28;20215;-51
2021/05/21 03:16:39;;;;;;;1.63;1.20;;;12.50;96.40;;;;;;5049978;28;20282;-53
2021/05/21 03:19:05;;;;;;;2.07;1.40;;;12.40;96.20;;;;;;5039081;28;20459;-51
2021/05/21 03:21:31;;;;;;;3.73;1.40;;;12.50;96.00;;;;;;5040824;28;20191;-51
2021/05/21 03:23:56;;;;;;;1.97;1.30;;;12.50;95.70;;;;;;5041599;28;20215;-51
2021/05/21 03:26:22;;;;;;;1.80;1.70;;;12.60;95.80;;;;;;5050446;28;20192;-52
2021/05/21 03:28:47;;;;;;;1.27;1.17;;;12.60;96.10;;;;;;5047797;28;20191;-51
2021/05/21 03:31:13;;;;;;;2.03;1.50;;;12.40;96.20;;;;;;5031113;28;20195;-51
2021/05/21 03:33:39;;;;;;;1.97;1.70;;;12.80;96.40;;;;;;5040389;28;20193;-52
2021/05/21 03:36:05;;;;;;;1.70;1.50;;;12.40;96.50;;;;;;5042226;28;20306;-52
2021/05/21 03:38:31;;;;;;;1.60;1.40;;;12.40;96.70;;;;;;5043354;28;20192;-51
2021/05/21 03:40:56;;;;;;;4.93;2.17;;;12.60;96.90;;;;;;5049834;28;20187;-51
2021/05/21 03:43:22;;;;;;;2.23;2.03;;;12.60;97.20;;;;;;5050805;28;20215;-51
2021/05/21 03:45:48;;;;;;;1.63;1.53;;;12.30;97.30;;;;;;5043403;28;20711;-52
2021/05/21 03:48:14;;;;;;;1.73;1.63;;;12.00;96.80;;;;;;5044245;28;20182;-52
2021/05/21 03:50:40;;;;;;;2.63;1.85;;;12.30;97.60;;;;;;5041660;28;20187;-51
2021/05/21 03:53:06;;;;;;;3.33;2.30;;;12.00;97.60;;;;;;5038417;28;20221;-51
2021/05/21 03:55:32;;;;;;;2.00;1.67;;;12.10;97.70;;;;;;5047301;28;20817;-52
2021/05/21 03:57:59;;;;;;;2.22;2.05;;;12.10;97.90;;;;;;5030868;28;20271;-51
2021/05/21 04:00:25;;;;;;;2.00;1.90;;;12.30;98.10;;;;;;5030647;28;20174;-51
2021/05/21 04:02:51;;;;;;;2.47;2.27;;;11.90;97.90;;;;;;5038820;28;20213;-51
2021/05/21 04:05:21;;;;;;;1.70;1.60;;;12.20;98.40;;;;;;5033317;28;20315;-52
2021/05/21 04:07:48;;;;;;;1.67;1.58;;;12.00;98.00;;;;;;5031083;28;20579;-50
2021/05/21 04:10:14;;;;;;;1.83;1.73;;;12.00;97.90;;;;;;5034654;28;20278;-51
2021/05/21 04:12:40;;;;;;;1.83;1.70;;;11.90;98.30;;;;;;5044202;28;20321;-51
2021/05/21 04:15:06;;;;;;;2.90;1.40;;;11.90;97.90;;;;;;5041594;28;20977;-51
2021/05/21 04:17:32;;;;;;;1.85;1.75;;;12.10;97.50;;;;;;5059350;28;20601;-52
2021/05/21 04:19:58;;;;;;;1.80;1.70;;;12.20;97.50;;;;;;5030305;28;20307;-52
2021/05/21 04:22:24;;;;;;;1.70;1.47;;;12.10;97.70;;;;;;5052823;28;20332;-52
2021/05/21 04:24:49;;;;;;;2.90;2.00;;;12.30;97.40;;;;;;5038922;28;20482;-51
2021/05/21 04:27:15;;;;;;;1.67;1.53;;;12.60;97.50;;;;;;5041206;28;20189;-51
2021/05/21 04:29:44;;;;;;;4.57;2.53;;;12.40;97.50;;;;;;5045896;28;20305;-50
2021/05/21 04:32:09;;;;;;;1.80;1.70;;;12.40;97.40;;;;;;5046258;28;20193;-51
2021/05/21 04:34:35;;;;;;;4.63;1.77;;;12.30;97.30;;;;;;5047832;28;20210;-52
2021/05/21 04:37:01;;;;;;;2.10;1.90;;;12.50;97.00;;;;;;5048493;28;20182;-51
2021/05/21 04:39:27;;;;;;;2.10;1.90;;;12.50;97.70;;;;;;5048775;28;20209;-54
2021/05/21 04:41:54;;;;;;;2.60;2.10;;;12.50;97.70;;;;;;5043210;28;20438;-53
2021/05/21 04:44:19;;;;;;;2.00;1.90;;;12.40;97.20;;;;;;5048417;28;20921;-51
2021/05/21 04:46:45;;;;;;;2.10;1.90;;;12.70;97.40;;;;;;5040086;28;20352;-50
2021/05/21 04:49:11;;;;;;;2.03;1.93;;;12.50;97.50;;;;;;5038162;28;20227;-50
2021/05/21 04:51:37;;;;;;;5.90;2.33;;;12.60;98.20;;;;;;5032532;28;20417;-51
2021/05/21 04:54:03;;;;;;;2.45;1.77;;;12.60;97.90;;;;;;5041593;28;20228;-50
2021/05/21 04:56:29;;;;;;;2.50;2.30;;;12.90;97.30;;;;;;5051351;28;20282;-51
2021/05/21 04:58:54;;;;;;;1.80;1.70;;;12.80;97.10;;;;;;5030147;28;20279;-51
2021/05/21 05:01:20;;;;;;;2.97;1.87;;;12.70;97.00;;;;;;5044813;28;20195;-53
2021/05/21 05:03:46;;;;;;;1.70;1.60;;;12.80;97.10;;;;;;5044016;28;20233;-52
2021/05/21 05:06:12;;;;;;;3.83;1.80;;;12.70;96.90;;;;;;5046645;28;20274;-53
2021/05/21 05:08:38;;;;;;;3.10;1.60;;;12.80;96.70;;;;;;5040936;28;20271;-52
2021/05/21 05:11:05;;;;;;;2.08;1.60;;;12.80;96.30;;;;;;5045132;28;20189;-49
2021/05/21 05:13:30;;;;;;;1.70;1.60;;;13.10;96.10;;;;;;5043634;28;20186;-49
2021/05/21 05:15:56;;;;;;;2.40;2.00;;;13.10;95.80;;;;;;5045891;28;20690;-50
2021/05/21 05:18:22;;;;;;;2.43;1.80;;;12.80;95.40;;;;;;5047695;28;20224;-51
2021/05/21 05:20:48;;;;;;;4.93;2.00;;;13.40;95.90;;;;;;5045768;28;21016;-51
2021/05/21 05:23:14;;;;;;;3.10;2.05;;;13.20;95.70;;;;;;5042594;28;20734;-51
2021/05/21 05:25:41;;;;;;;4.03;1.90;;;13.30;95.60;;;;;;5040904;28;20658;-50
2021/05/21 05:28:07;;;;;;;2.33;1.35;;;13.60;95.20;;;;;;5046742;28;20198;-52
2021/05/21 05:30:33;;;;;;;2.80;1.60;;;13.60;94.70;;;;;;5038325;28;21162;-51
2021/05/21 05:32:58;;;;;;;5.10;2.07;;;13.70;94.60;;;;;;5042925;28;20180;-50
2021/05/21 05:35:24;;;;;;;3.20;2.00;;;13.80;94.40;;;;;;5041455;28;20263;-50
2021/05/21 05:37:53;;;;;;;2.57;1.70;;;13.90;94.70;;;;;;5041071;28;20243;-50
2021/05/21 05:40:19;;;;;;;2.65;1.55;;;13.90;94.40;;;;;;5043884;28;20196;-50
2021/05/21 05:42:44;;;;;;;1.80;1.70;;;14.00;93.80;;;;;;5042073;28;20188;-50
2021/05/21 05:45:10;;;;;;;1.70;1.43;;;14.10;93.30;;;;;;5031650;28;20709;-50
2021/05/21 05:47:36;;;;;;;2.00;1.70;;;14.00;93.20;;;;;;5037903;28;20210;-50
2021/05/21 05:50:03;;;;;;;2.47;1.40;;;13.90;93.50;;;;;;5043793;28;20221;-51
2021/05/21 05:52:28;;;;;;;2.20;1.48;;;14.20;93.60;;;;;;5047390;28;20614;-51
2021/05/21 05:54:54;;;;;;;2.73;1.40;;;14.20;93.10;;;;;;5039836;28;20296;-51
2021/05/21 05:57:20;;;;;;;3.25;1.80;;;14.30;93.10;;;;;;5027782;28;20193;-51
2021/05/21 05:59:46;;;;;;;1.80;1.60;;;14.20;92.40;;;;;;5037150;28;20186;-51
2021/05/21 06:02:11;;;;;;;1.20;1.10;;;14.60;92.00;;;;;;5036486;28;20185;-51
2021/05/21 06:04:37;;;;;;;1.10;1.00;;;14.30;90.40;;;;;;5041389;28;20263;-51
2021/05/21 06:07:03;;;;;;;1.20;1.10;;;14.90;90.30;;;;;;5036703;28;20253;-51
2021/05/21 06:09:28;;;;;;;2.07;1.87;;;15.00;90.50;;;;;;5037827;28;20193;-53
2021/05/21 06:11:55;;;;;;;1.37;1.27;;;15.00;89.80;;;;;;5042803;28;20243;-53
2021/05/21 06:14:21;;;;;;;1.95;1.35;;;15.20;90.20;;;;;;5040661;28;20227;-54
2021/05/21 06:16:47;;;;;;;1.93;1.73;;;15.10;89.80;;;;;;5033688;28;20714;-55
2021/05/21 06:19:13;;;;;;;2.72;1.50;;;15.20;90.30;;;;;;5035654;28;20542;-54
2021/05/21 06:21:39;;;;;;;4.23;1.50;;;15.40;90.00;;;;;;5032490;28;20198;-54
2021/05/21 06:24:04;;;;;;;2.93;1.83;;;15.40;88.60;;;;;;5042568;28;20483;-52
2021/05/21 06:26:34;;;;;;;4.13;1.50;;;15.40;88.80;;;;;;5044085;28;20197;-52
2021/05/21 06:29:00;;;;;;;1.40;1.30;;;15.70;89.70;;;;;;5033572;28;20505;-51
2021/05/21 06:31:25;;;;;;;1.40;1.30;;;16.10;88.10;;;;;;5038246;28;20198;-52
2021/05/21 06:33:51;;;;;;;1.63;1.40;;;15.90;87.60;;;;;;5040782;28;20220;-52
2021/05/21 06:36:17;;;;;;;2.40;1.80;;;16.10;85.70;;;;;;5044983;28;20185;-51
2021/05/21 06:38:42;;;;;;;1.37;1.23;;;16.00;86.00;;;;;;5042116;28;20276;-52
2021/05/21 06:41:08;;;;;;;2.30;1.60;;;15.90;84.90;;;;;;5045394;28;20643;-51
2021/05/21 06:43:35;;;;;;;1.48;1.25;;;15.80;84.80;;;;;;5036466;28;20209;-52
2021/05/21 06:46:02;;;;;;;2.05;1.67;;;15.90;85.30;;;;;;5044417;28;20264;-52
2021/05/21 06:48:35;;;;;;;3.58;1.70;;;15.90;84.90;;;;;;5050894;28;20185;-52
2021/05/21 06:51:06;;;;;;;1.92;1.77;;;16.50;86.50;;;;;;5041847;28;20320;-50
2021/05/21 06:53:33;;;;;;;1.50;1.40;;;16.30;85.80;;;;;;5044098;28;20658;-50
2021/05/21 06:55:59;;;;;;;1.33;1.20;;;16.60;84.80;;;;;;5058331;28;20315;-50
2021/05/21 06:58:26;;;;;;;1.67;1.35;;;16.80;83.90;;;;;;5051125;28;20194;-51
2021/05/21 07:00:53;;;;;;;1.30;1.20;;;17.20;83.20;;;;;;5066019;28;20273;-50
2021/05/21 07:03:19;;;;;;;1.80;1.00;;;17.00;82.50;;;;;;5034705;28;20194;-50
2021/05/21 07:05:46;;;;;;;1.50;1.20;;;16.80;82.40;;;;;;5041634;28;20202;-51
2021/05/21 07:08:12;;;;;;;3.65;1.60;;;17.00;82.20;;;;;;5048306;28;20519;-51
2021/05/21 07:10:38;;;;;;;1.10;1.00;;;17.00;81.70;;;;;;5038284;28;20270;-51
2021/05/21 07:13:15;;;;;;;1.40;1.10;;;17.10;81.60;;;;;;5038274;28;20436;-51
2021/05/21 07:15:41;;;;;;;1.30;1.08;;;17.10;80.50;;;;;;5044054;28;20260;-50
2021/05/21 07:18:07;;;;;;;1.93;1.20;;;17.00;81.00;;;;;;5042927;28;20201;-52
2021/05/21 07:20:33;;;;;;;1.17;1.08;;;17.20;81.00;;;;;;5040343;28;20559;-51
2021/05/21 07:22:59;;;;;;;1.33;1.13;;;17.10;81.10;;;;;;5049404;28;20288;-50
2021/05/21 07:25:25;;;;;;;2.23;1.37;;;17.20;81.20;;;;;;5046425;28;20288;-53
2021/05/21 07:27:51;;;;;;;1.17;1.07;;;17.20;80.90;;;;;;5045844;28;20185;-52
2021/05/21 07:30:18;;;;;;;2.87;1.50;;;17.20;81.30;;;;;;5039069;28;20429;-52
2021/05/21 07:32:44;;;;;;;2.33;1.70;;;17.10;81.30;;;;;;5031095;28;20961;-52
2021/05/21 07:35:11;;;;;;;1.92;1.33;;;17.10;81.40;;;;;;5043890;28;20292;-52
2021/05/21 07:37:37;;;;;;;1.73;1.23;;;16.70;80.60;;;;;;5037442;28;20194;-50
2021/05/21 07:40:07;;;;;;;2.80;1.53;;;17.40;80.50;;;;;;5038822;28;20206;-53
2021/05/21 07:42:34;;;;;;;1.50;1.40;;;17.20;79.80;;;;;;5048523;28;21036;-52
2021/05/21 07:45:00;;;;;;;1.00;0.90;;;17.10;79.60;;;;;;5037418;28;20674;-54
2021/05/21 07:47:25;;;;;;;1.30;1.20;;;17.00;79.40;;;;;;5040711;28;20592;-52
2021/05/21 07:49:51;;;;;;;2.00;1.10;;;17.20;80.10;;;;;;5040397;28;20182;-52
2021/05/21 07:52:17;;;;;;;3.30;2.13;;;17.20;79.60;;;;;;5039816;28;20187;-53
2021/05/21 07:54:42;;;;;;;3.03;2.60;;;17.10;80.40;;;;;;5046783;28;20206;-52
2021/05/21 07:57:08;;;;;;;1.60;1.37;;;17.10;80.80;;;;;;5047190;28;20281;-53
2021/05/21 07:59:34;;;;;;;2.20;1.17;;;17.00;81.00;;;;;;5039326;28;20647;-52
2021/05/21 08:02:00;;;;;;;1.30;0.90;;;17.10;80.30;;;;;;5047648;28;20269;-52
2021/05/21 08:04:26;;;;;;;2.15;1.10;;;17.00;79.40;;;;;;5046130;28;20525;-52
2021/05/21 08:06:52;;;;;;;2.13;1.10;;;17.10;79.30;;;;;;5044378;28;20174;-51
2021/05/21 08:09:18;;;;;;;3.42;1.30;;;17.10;79.80;;;;;;5038928;28;20186;-52
2021/05/21 08:11:43;;;;;;;1.50;1.17;;;17.10;79.00;;;;;;5039597;28;20197;-52
2021/05/21 08:14:10;;;;;;;3.77;1.50;;;17.20;79.30;;;;;;5046186;28;20465;-52
2021/05/21 08:16:37;;;;;;;1.88;1.20;;;17.20;78.50;;;;;;5047844;28;20181;-52
2021/05/21 08:19:03;;;;;;;1.92;1.08;;;17.20;78.50;;;;;;5032698;28;20190;-52
2021/05/21 08:21:28;;;;;;;1.33;1.23;;;17.20;78.30;;;;;;5031331;28;20183;-49
2021/05/21 08:23:55;;;;;;;5.00;1.20;;;17.30;77.90;;;;;;5045182;28;20224;-53
2021/05/21 08:26:27;;;;;;;2.50;1.60;;;17.20;77.90;;;;;;5041576;28;20200;-52
2021/05/21 08:28:54;;;;;;;2.20;1.30;;;17.30;78.20;;;;;;5038366;28;20181;-52
2021/05/21 08:31:21;;;;;;;1.67;1.20;;;17.40;78.50;;;;;;5032574;28;20208;-52
2021/05/21 08:33:47;;;;;;;1.70;1.23;;;17.50;78.10;;;;;;5039644;28;20189;-53
2021/05/21 08:36:14;;;;;;;1.23;1.13;;;17.30;77.70;;;;;;5062674;28;20440;-51
2021/05/21 08:38:46;;;;;;;1.45;1.20;;;17.40;77.00;;;;;;5041931;28;20212;-52
2021/05/21 08:41:23;;;;;;;1.90;0.90;;;17.40;77.70;;;;;;5048566;28;20347;-52
2021/05/21 08:43:49;;;;;;;1.10;1.00;;;17.60;78.00;;;;;;5064179;28;20271;-51
2021/05/21 08:46:17;;;;;;;1.10;0.95;;;17.50;77.50;;;;;;5036538;28;20320;-50
2021/05/21 08:48:42;;;;;;;1.10;1.00;;;17.70;77.90;;;;;;5030200;28;20605;-51
2021/05/21 08:51:09;;;;;;;1.20;1.10;;;17.70;78.40;;;;;;5045823;28;20268;-52
2021/05/21 08:53:36;;;;;;;1.40;1.30;;;17.70;80.10;;;;;;5042043;28;20476;-53
2021/05/21 08:56:03;;;;;;;1.80;1.30;;;17.80;79.00;;;;;;5032410;28;20179;-53
2021/05/21 08:58:29;;;;;;;3.63;1.75;;;17.50;79.30;;;;;;5035215;28;20591;-53
2021/05/21 09:00:55;;;;;;;1.50;1.40;;;17.40;79.70;;;;;;5038972;28;20190;-53
2021/05/21 09:03:26;;;;;;;1.40;1.30;;;17.50;80.00;;;;;;5034065;28;20190;-53
2021/05/21 09:08:45;;;;;;;1.25;1.00;;;17.30;79.10;;;;;;5041751;28;20585;-53
2021/05/21 09:11:31;;;;;;;2.75;0.98;;;17.40;77.90;;;;;;5038886;28;20186;-52
2021/05/21 09:14:04;;;;;;;1.23;0.90;;;17.40;76.70;;;;;;5042205;28;20241;-51
2021/05/21 09:16:32;;;;;;;3.58;1.42;;;17.40;77.00;;;;;;5039142;28;20185;-50
2021/05/21 09:18:58;;;;;;;4.35;3.25;;;17.40;77.70;;;;;;5039935;28;20202;-50
2021/05/21 09:21:25;;;;;;;1.57;1.37;;;17.60;77.10;;;;;;5039739;28;20239;-50
2021/05/21 09:24:04;;;;;;;2.90;1.02;;;17.50;77.10;;;;;;5038293;28;20629;-51
2021/05/21 09:26:59;;;;;;;1.63;1.20;;;17.40;77.70;;;;;;5037980;28;20189;-51
2021/05/21 09:29:36;;;;;;;2.95;1.05;;;17.20;77.80;;;;;;5024379;28;20189;-52
2021/05/21 09:32:14;;;;;;;1.38;1.02;;;17.30;78.50;;;;;;5037628;28;20264;-52
2021/05/21 09:34:40;;;;;;;0.82;0.82;;;17.10;78.70;;;;;;5041149;28;20247;-55
2021/05/21 09:37:06;;;;;;;0.90;0.80;;;17.00;78.90;;;;;;5042754;28;20185;-53
2021/05/21 09:39:31;;;;;;;3.53;1.00;;;17.10;79.50;;;;;;5035984;28;20190;-53
2021/05/21 09:41:58;;;;;;;2.10;1.00;;;16.90;79.60;;;;;;5031817;28;20182;-54
2021/05/21 09:44:25;;;;;;;1.85;1.10;;;16.90;80.10;;;;;;5034509;28;20222;-53
2021/05/21 09:46:52;;;;;;;1.10;1.00;;;16.80;79.70;;;;;;5062523;28;20186;-53
2021/05/21 09:49:34;;;;;;;1.10;0.98;;;17.10;80.00;;;;;;5042249;28;20193;-52
2021/05/21 09:52:03;;;;;;;1.10;0.93;;;17.10;80.40;;;;;;5038914;28;20273;-54
2021/05/21 09:54:56;;;;;;;1.27;1.10;;;16.90;80.20;;;;;;5032164;28;20213;-52
2021/05/21 09:57:33;;;;;;;1.73;1.63;;;16.90;80.30;;;;;;5053716;28;20182;-52
2021/05/21 09:59:59;;;;;;;1.65;1.33;;;16.80;80.80;;;;;;5034172;28;20185;-54
2021/05/21 10:02:29;;;;;;;3.20;1.10;;;16.90;81.10;;;;;;5038012;28;20233;-54
2021/05/21 10:04:56;;;;;;;1.83;1.60;;;17.20;81.10;;;;;;5034917;28;20471;-52
2021/05/21 10:07:24;;;;;;;1.40;0.80;;;17.00;81.10;;;;;;5044287;28;20205;-52
2021/05/21 10:09:50;;;;;;;2.13;1.05;;;16.90;80.70;;;;;;5040997;28;20192;-53
2021/05/21 10:12:16;;;;;;;1.40;0.98;;;16.70;81.30;;;;;;5045921;28;20182;-52
2021/05/21 10:14:48;;;;;;;0.82;0.82;;;17.00;81.40;;;;;;5036502;28;20535;-52
2021/05/21 10:17:17;;;;;;;1.70;1.15;;;16.80;81.30;;;;;;5049888;28;20231;-52
2021/05/21 10:19:47;;;;;;;1.40;0.80;;;16.80;81.10;;;;;;5047917;28;20193;-53
2021/05/21 10:22:23;;;;;;;2.38;1.30;;;17.10;81.30;;;;;;5043043;28;20180;-53
2021/05/21 10:24:52;;;;;;;2.10;0.98;;;16.90;81.50;;;;;;5043300;28;20255;-52
2021/05/21 10:27:27;;;;;;;1.20;1.10;;;16.90;81.50;;;;;;5045463;28;20658;-52
2021/05/21 10:29:57;;;;;;;2.42;1.52;;;16.90;81.00;;;;;;5049716;28;20177;-52
2021/05/21 10:32:30;;;;;;;1.48;1.10;;;16.80;81.30;;;;;;5045876;28;20246;-52
2021/05/21 10:34:57;;;;;;;2.35;1.30;;;16.90;82.10;;;;;;5044033;28;20213;-53
2021/05/21 10:37:29;;;;;;;2.25;0.98;;;17.10;82.50;;;;;;5042744;28;20521;-53
2021/05/21 10:40:07;;;;;;;1.80;1.58;;;17.00;82.00;;;;;;5041540;28;20269;-53
2021/05/21 10:42:45;;;;;;;4.00;2.35;;;17.10;82.50;;;;;;5046917;28;20181;-54
2021/05/21 10:45:23;;;;;;;2.10;1.98;;;17.10;82.50;;;;;;5031835;28;20217;-51
2021/05/21 10:47:58;;;;;;;1.38;1.27;;;17.10;82.60;;;;;;5042074;28;20201;-52
2021/05/21 10:50:36;;;;;;;1.75;1.00;;;17.20;83.30;;;;;;5044573;28;21029;-52
2021/05/21 10:53:04;;;;;;;4.68;1.50;;;17.30;83.60;;;;;;5036916;28;20180;-52
2021/05/21 10:55:43;;;;;;;1.63;1.52;;;17.40;82.70;;;;;;5042686;28;20697;-52
2021/05/21 10:58:19;;;;;;;2.97;1.13;;;17.60;82.60;;;;;;5044332;28;20187;-52
2021/05/21 11:01:07;;;;;;;1.02;0.93;;;17.90;83.10;;;;;;5048644;28;20182;-53
2021/05/21 11:03:55;;;;;;;1.35;1.25;;;17.80;82.40;;;;;;5044722;28;20239;-51
2021/05/21 11:06:22;;;;;;;2.42;2.00;;;17.80;82.60;;;;;;5039191;28;20212;-50
2021/05/21 11:08:48;;;;;;;2.53;1.55;;;18.00;82.40;;;;;;5042721;28;20197;-53
2021/05/21 11:11:14;;;;;;;2.60;1.10;;;18.00;82.50;;;;;;5036786;28;20267;-51
2021/05/21 11:13:41;;;;;;;1.80;1.20;;;18.10;82.30;;;;;;5042229;28;20181;-52
2021/05/21 11:16:11;;;;;;;3.80;2.80;;;18.10;81.30;;;;;;5046138;28;20208;-51
2021/05/21 11:18:46;;;;;;;1.77;1.38;;;18.20;81.30;;;;;;5047107;28;20283;-51
2021/05/21 11:21:18;;;;;;;3.70;1.30;;;18.20;80.90;;;;;;5042341;28;20192;-51
2021/05/21 11:23:46;;;;;;;1.90;1.15;;;18.20;81.00;;;;;;5042475;28;20639;-54
2021/05/21 11:26:13;;;;;;;1.50;1.10;;;18.40;80.30;;;;;;5039709;28;20213;-54
2021/05/21 11:28:44;;;;;;;1.42;0.90;;;18.20;79.80;;;;;;5032228;28;20185;-56
2021/05/21 11:31:22;;;;;;;1.25;0.98;;;18.10;80.40;;;;;;5035282;28;20655;-52
2021/05/21 11:33:51;;;;;;;1.10;0.95;;;18.00;80.80;;;;;;5042458;28;20235;-51
2021/05/21 11:36:18;;;;;;;4.95;3.85;;;18.30;81.00;;;;;;5042594;28;20196;-52
2021/05/21 11:38:44;;;;;;;1.98;1.20;;;18.30;80.00;;;;;;5046738;28;20186;-53
2021/05/21 11:41:11;;;;;;;1.80;0.90;;;18.60;80.30;;;;;;5039494;28;20238;-52
2021/05/21 11:43:42;;;;;;;1.13;0.90;;;18.70;80.10;;;;;;5044353;28;21159;-52
2021/05/21 11:46:17;;;;;;;1.40;0.90;;;18.70;79.30;;;;;;5042106;28;20566;-54
2021/05/21 11:48:50;;;;;;;1.08;0.90;;;18.70;80.00;;;;;;5048703;28;20174;-53
2021/05/21 11:51:25;;;;;;;1.42;1.10;;;18.90;78.70;;;;;;5034841;28;20193;-53
2021/05/21 11:53:55;;;;;;;4.53;1.10;;;18.60;78.60;;;;;;5049033;28;20831;-53
2021/05/21 11:56:38;;;;;;;2.95;1.30;;;18.50;78.30;;;;;;5042522;28;20722;-52
2021/05/21 11:59:13;;;;;;;0.80;0.80;;;18.60;78.90;;;;;;5046532;28;20181;-54
2021/05/21 12:01:59;;;;;;;0.98;0.88;;;18.30;78.40;;;;;;5036020;28;20713;-50
2021/05/21 12:04:30;;;;;;;2.10;1.13;;;18.50;78.60;;;;;;5048309;28;20268;-52
2021/05/21 12:06:56;;;;;;;1.75;1.10;;;18.30;77.70;;;;;;5046723;28;20593;-51
2021/05/21 12:09:22;;;;;;;1.42;1.00;;;18.20;77.20;;;;;;5034846;28;20178;-51
2021/05/21 12:11:50;;;;;;;1.02;0.90;;;18.20;77.00;;;;;;5034416;28;20272;-51
2021/05/21 12:14:21;;;;;;;1.10;0.80;;;18.20;76.40;;;;;;5032758;28;20229;-50
2021/05/21 12:16:48;;;;;;;1.25;0.88;;;18.00;76.20;;;;;;5046769;28;20228;-51
2021/05/21 12:19:15;;;;;;;2.63;0.82;;;18.00;76.90;;;;;;5049368;28;20213;-52
2021/05/21 12:21:49;;;;;;;1.08;0.98;;;18.00;76.90;;;;;;5045107;28;20197;-51
2021/05/21 12:24:19;;;;;;;1.10;1.00;;;18.20;75.80;;;;;;5039564;28;20253;-51
2021/05/21 12:26:48;;;;;;;1.52;0.80;;;18.20;75.30;;;;;;5026160;28;20186;-51
2021/05/21 12:29:15;;;;;;;2.42;0.75;;;18.30;75.70;;;;;;5033659;28;20186;-51
2021/05/21 12:32:02;;;;;;;1.15;0.80;;;18.30;74.70;;;;;;5035561;28;20208;-51
2021/05/21 12:34:29;;;;;;;1.92;1.02;;;18.20;74.60;;;;;;5035913;28;20205;-50
2021/05/21 12:37:00;;;;;;;2.10;0.80;;;18.10;74.70;;;;;;5036846;28;20594;-51
2021/05/21 12:39:46;;;;;;;2.03;0.85;;;18.10;74.60;;;;;;5035664;28;20190;-52
2021/05/21 12:42:16;;;;;;;3.72;1.00;;;18.20;75.20;;;;;;5040304;28;20590;-52
2021/05/21 12:45:00;;;;;;;1.38;1.27;;;18.30;74.10;;;;;;5046619;28;20213;-53
2021/05/21 12:47:26;;;;;;;0.80;0.80;;;18.30;73.50;;;;;;5046713;28;20334;-52
2021/05/21 12:49:51;;;;;;;1.00;0.80;;;18.30;74.00;;;;;;5036823;28;20354;-52
2021/05/21 12:52:18;;;;;;;1.33;0.80;;;18.20;74.10;;;;;;5042212;28;20198;-53
2021/05/21 12:54:45;;;;;;;0.90;0.90;;;18.40;73.70;;;;;;5030496;28;20315;-53